Time;durP1;ratioP1;P1;durP2;ratioP2;P2;SDS_P1;SDS_P2;PMS_P1;PMS_P2;Temp;Humidity;BMP_temperature;BMP_pressure;BME280_temperature;BME280_humidity;BME280_pressure;Samples;Min_cycle;Max_cycle;Signal;HPM_P1;HPM_P2
2023/04/11 00:00:53;;;;;;;11.70;6.93;;;11.70;56.00;;;;;;5043723;28;20053;-71
2023/04/11 00:03:21;;;;;;;12.30;6.78;;;11.70;55.80;;;;;;5052292;28;20710;-71
2023/04/11 00:05:48;;;;;;;13.85;6.68;;;11.70;55.80;;;;;;5065969;28;20520;-71
2023/04/11 00:08:15;;;;;;;11.65;6.82;;;11.60;56.10;;;;;;5067960;28;20856;-71
2023/04/11 00:10:42;;;;;;;11.82;6.22;;;11.60;56.50;;;;;;5065183;28;20783;-71
2023/04/11 00:13:11;;;;;;;11.13;5.97;;;11.50;56.40;;;;;;5052960;28;20053;-71
2023/04/11 00:15:38;;;;;;;15.63;6.43;;;11.50;56.70;;;;;;5048835;28;20156;-71
2023/04/11 00:18:05;;;;;;;11.95;6.60;;;11.50;56.40;;;;;;5045446;28;20048;-71
2023/04/11 00:20:33;;;;;;;10.38;6.15;;;11.50;56.50;;;;;;5066108;28;20062;-71
2023/04/11 00:22:59;;;;;;;11.90;6.32;;;11.50;56.70;;;;;;5058794;28;20044;-71
2023/04/11 00:25:28;;;;;;;10.45;6.18;;;11.50;56.70;;;;;;5041665;28;20044;-71
2023/04/11 00:27:55;;;;;;;19.08;6.13;;;11.50;56.50;;;;;;5061311;28;20102;-71
2023/04/11 00:30:22;;;;;;;14.00;6.50;;;11.50;56.80;;;;;;5062229;28;20136;-71
2023/04/11 00:32:49;;;;;;;11.52;6.43;;;11.50;56.80;;;;;;5064453;28;20041;-71
2023/04/11 00:35:16;;;;;;;12.88;6.80;;;11.50;57.20;;;;;;5058909;28;20072;-71
2023/04/11 00:37:44;;;;;;;10.27;5.82;;;11.50;56.70;;;;;;5062574;28;20048;-71
2023/04/11 00:40:16;;;;;;;13.32;6.65;;;11.50;56.80;;;;;;5062719;28;20744;-72
2023/04/11 00:42:43;;;;;;;10.80;6.25;;;11.50;57.00;;;;;;5047833;28;20491;-71
2023/04/11 00:45:10;;;;;;;10.98;5.95;;;11.40;57.00;;;;;;5060233;28;20056;-71
2023/04/11 00:47:37;;;;;;;12.38;7.13;;;11.40;57.20;;;;;;5048736;28;20048;-71
2023/04/11 00:50:05;;;;;;;11.95;6.82;;;11.50;57.20;;;;;;5065544;28;20163;-71
2023/04/11 00:52:33;;;;;;;12.30;6.47;;;11.40;57.30;;;;;;5063913;28;20048;-71
2023/04/11 00:55:05;;;;;;;12.35;6.95;;;11.40;57.00;;;;;;5065288;28;20825;-71
2023/04/11 00:57:33;;;;;;;11.05;6.00;;;11.40;57.30;;;;;;5065273;28;20052;-71
2023/04/11 01:00:00;;;;;;;12.10;6.50;;;11.40;57.30;;;;;;5063065;28;20503;-71
2023/04/11 01:02:27;;;;;;;9.85;5.78;;;11.40;57.20;;;;;;5058591;28;20067;-71
2023/04/11 01:04:55;;;;;;;11.00;6.13;;;11.40;57.20;;;;;;5065512;28;20056;-71
2023/04/11 01:07:23;;;;;;;12.43;6.72;;;11.50;57.20;;;;;;5071948;28;20051;-71
2023/04/11 01:09:51;;;;;;;13.48;6.85;;;11.40;57.40;;;;;;5056836;28;20049;-72
2023/04/11 01:12:20;;;;;;;15.48;7.05;;;11.40;57.00;;;;;;5047189;28;20051;-71
2023/04/11 01:14:47;;;;;;;13.38;6.75;;;11.40;57.00;;;;;;5045086;28;20491;-71
2023/04/11 01:17:14;;;;;;;11.25;6.47;;;11.40;57.20;;;;;;5053295;28;20044;-71
2023/04/11 01:19:42;;;;;;;12.73;6.78;;;11.40;57.50;;;;;;5062111;28;20092;-71
2023/04/11 01:22:10;;;;;;;11.50;6.40;;;11.40;57.30;;;;;;5066255;28;20074;-71
2023/04/11 01:24:37;;;;;;;14.00;7.10;;;11.30;57.50;;;;;;5041026;28;20058;-71
2023/04/11 01:27:04;;;;;;;13.85;6.63;;;11.30;57.80;;;;;;5069706;28;20044;-71
2023/04/11 01:29:31;;;;;;;15.05;7.93;;;11.30;57.80;;;;;;5059927;28;20060;-71
2023/04/11 01:31:59;;;;;;;12.20;7.20;;;11.20;57.90;;;;;;5063683;28;20056;-71
2023/04/11 01:34:27;;;;;;;13.40;6.80;;;11.20;58.00;;;;;;5063100;28;20049;-71
2023/04/11 01:36:54;;;;;;;13.73;7.30;;;11.20;58.20;;;;;;5070150;28;20044;-71
2023/04/11 01:39:21;;;;;;;13.45;7.05;;;11.20;58.50;;;;;;5064086;28;20056;-71
2023/04/11 01:41:49;;;;;;;13.30;6.80;;;11.20;58.20;;;;;;5055739;28;20047;-71
2023/04/11 01:44:18;;;;;;;10.27;6.45;;;11.20;58.00;;;;;;5064531;28;20079;-71
2023/04/11 01:46:45;;;;;;;12.70;6.63;;;11.20;58.40;;;;;;5065157;28;20048;-71
2023/04/11 01:49:17;;;;;;;12.50;6.28;;;11.10;58.40;;;;;;5038705;28;20387;-71
2023/04/11 01:51:44;;;;;;;14.23;6.78;;;11.20;58.40;;;;;;5066424;28;20071;-71
2023/04/11 01:54:11;;;;;;;12.60;6.90;;;11.20;58.30;;;;;;5050399;28;20037;-71
2023/04/11 01:56:38;;;;;;;12.27;6.93;;;11.20;58.60;;;;;;5042655;28;20060;-71
2023/04/11 01:59:05;;;;;;;13.57;6.72;;;11.20;58.80;;;;;;5049533;28;20044;-71
2023/04/11 02:01:32;;;;;;;13.75;6.30;;;11.20;58.60;;;;;;5062311;28;20704;-71
2023/04/11 02:04:00;;;;;;;13.20;6.93;;;11.10;59.00;;;;;;5047659;28;20048;-71
2023/04/11 02:06:27;;;;;;;11.68;6.35;;;11.10;59.20;;;;;;5061805;28;20048;-71
2023/04/11 02:08:54;;;;;;;11.82;6.30;;;11.10;58.90;;;;;;5042299;28;20079;-71
2023/04/11 02:11:21;;;;;;;11.40;6.72;;;11.10;59.50;;;;;;5044541;28;20055;-71
2023/04/11 02:13:48;;;;;;;20.08;7.05;;;11.10;60.00;;;;;;5059197;28;20047;-71
2023/04/11 02:16:16;;;;;;;16.40;6.78;;;11.00;61.30;;;;;;5061716;28;20046;-71
2023/04/11 02:18:45;;;;;;;11.07;6.10;;;11.00;62.40;;;;;;5062854;28;20680;-71
2023/04/11 02:21:11;;;;;;;11.70;5.85;;;11.00;63.80;;;;;;5060697;28;20048;-71
2023/04/11 02:23:38;;;;;;;11.93;6.35;;;10.90;65.00;;;;;;5059389;28;20093;-71
2023/04/11 02:26:05;;;;;;;10.82;6.18;;;10.80;64.60;;;;;;5064894;28;20048;-71
2023/04/11 02:28:32;;;;;;;12.00;6.25;;;10.80;66.40;;;;;;5065190;28;20052;-71
2023/04/11 02:30:59;;;;;;;16.33;6.60;;;10.70;69.70;;;;;;5062298;28;20146;-71
2023/04/11 02:33:26;;;;;;;13.30;6.38;;;10.60;72.80;;;;;;5053541;28;20055;-70
2023/04/11 02:35:53;;;;;;;15.30;7.47;;;10.30;74.50;;;;;;5062471;28;20060;-71
2023/04/11 02:38:20;;;;;;;14.20;7.20;;;10.10;77.20;;;;;;5065115;28;20067;-71
2023/04/11 02:40:46;;;;;;;13.25;6.72;;;9.90;80.80;;;;;;5058838;28;20493;-71
2023/04/11 02:43:15;;;;;;;12.02;6.65;;;9.70;82.10;;;;;;5059499;28;20041;-70
2023/04/11 02:45:41;;;;;;;15.90;6.68;;;9.50;84.70;;;;;;5063101;28;20049;-70
2023/04/11 02:48:08;;;;;;;12.95;6.97;;;9.30;86.80;;;;;;5063620;28;20044;-70
2023/04/11 02:50:35;;;;;;;15.15;6.82;;;9.20;88.90;;;;;;5066262;28;20062;-70
2023/04/11 02:53:02;;;;;;;15.02;7.38;;;9.00;90.10;;;;;;5058813;28;20040;-70
2023/04/11 02:55:29;;;;;;;18.08;7.30;;;8.90;91.50;;;;;;5056751;28;20151;-70
2023/04/11 02:57:55;;;;;;;14.07;7.00;;;8.80;92.30;;;;;;5065388;28;20063;-70
2023/04/11 03:00:23;;;;;;;16.75;7.45;;;8.70;92.70;;;;;;5061764;28;20036;-71
2023/04/11 03:02:50;;;;;;;23.63;7.18;;;8.60;94.10;;;;;;5060946;28;20059;-70
2023/04/11 03:05:17;;;;;;;18.95;7.60;;;8.50;95.00;;;;;;5062986;28;20060;-71
2023/04/11 03:07:45;;;;;;;17.10;7.88;;;8.50;96.00;;;;;;5059190;28;20058;-70
2023/04/11 03:10:12;;;;;;;17.10;7.80;;;8.40;96.70;;;;;;5056624;28;20591;-71
2023/04/11 03:12:39;;;;;;;29.88;9.15;;;8.40;97.60;;;;;;5060673;28;20063;-70
2023/04/11 03:15:06;;;;;;;17.90;7.93;;;8.30;98.20;;;;;;5060295;28;20066;-70
2023/04/11 03:17:33;;;;;;;17.63;8.77;;;8.20;98.20;;;;;;5068990;28;20045;-70
2023/04/11 03:20:00;;;;;;;20.73;9.02;;;8.20;98.40;;;;;;5062336;28;20054;-70
2023/04/11 03:22:27;;;;;;;15.95;7.57;;;8.20;98.80;;;;;;5060967;28;20147;-70
2023/04/11 03:24:54;;;;;;;26.05;10.20;;;8.10;99.20;;;;;;5062114;28;20056;-70
2023/04/11 03:27:20;;;;;;;19.23;8.63;;;8.10;99.20;;;;;;5060141;28;20054;-70
2023/04/11 03:29:47;;;;;;;18.67;8.70;;;8.10;99.50;;;;;;5066037;28;20048;-70
2023/04/11 03:32:14;;;;;;;20.90;9.95;;;8.10;99.50;;;;;;5060033;28;20098;-70
2023/04/11 03:34:41;;;;;;;21.55;9.05;;;8.10;99.70;;;;;;5059559;28;20515;-70
2023/04/11 03:37:07;;;;;;;19.60;9.80;;;8.10;99.20;;;;;;5059904;28;20040;-70
2023/04/11 03:39:34;;;;;;;22.75;9.05;;;8.10;99.50;;;;;;5059281;28;20152;-70
2023/04/11 03:42:01;;;;;;;19.15;9.23;;;8.00;99.40;;;;;;5058652;28;20048;-70
2023/04/11 03:44:28;;;;;;;22.40;9.20;;;8.00;99.70;;;;;;5063223;28;20055;-70
2023/04/11 03:46:55;;;;;;;20.30;9.75;;;8.00;100.00;;;;;;5064240;28;20044;-70
2023/04/11 03:49:22;;;;;;;19.27;9.02;;;8.00;99.80;;;;;;5059118;28;20063;-70
2023/04/11 03:51:49;;;;;;;21.10;9.65;;;8.00;99.80;;;;;;5060285;28;20044;-70
2023/04/11 03:54:16;;;;;;;21.42;9.68;;;8.00;100.00;;;;;;5061526;28;20424;-70
2023/04/11 03:56:43;;;;;;;23.90;9.23;;;8.00;100.00;;;;;;5061208;28;20385;-70
2023/04/11 03:59:10;;;;;;;21.52;9.85;;;8.00;100.00;;;;;;5056729;28;20044;-70
2023/04/11 04:01:37;;;;;;;23.83;9.45;;;8.00;100.00;;;;;;5057275;28;20071;-70
2023/04/11 04:04:04;;;;;;;21.15;9.52;;;8.00;100.00;;;;;;5057162;28;20048;-70
2023/04/11 04:06:31;;;;;;;23.98;9.70;;;8.00;100.00;;;;;;5061313;28;20135;-70
2023/04/11 04:09:02;;;;;;;22.00;9.73;;;8.00;100.00;;;;;;5062078;28;20132;-70
2023/04/11 04:11:29;;;;;;;21.48;9.52;;;8.00;100.00;;;;;;5061806;28;20049;-70
2023/04/11 04:13:56;;;;;;;20.55;10.00;;;8.00;100.00;;;;;;5060479;28;20044;-70
2023/04/11 04:16:23;;;;;;;23.63;9.50;;;8.00;100.00;;;;;;5060591;28;20052;-70
2023/04/11 04:18:50;;;;;;;24.88;11.32;;;7.90;100.00;;;;;;5061834;28;20044;-70
2023/04/11 04:24:05;;;;;;;25.83;9.95;;;7.90;100.00;;;;;;4962014;28;20626;-73
2023/04/11 04:26:32;;;;;;;20.83;10.52;;;7.90;100.00;;;;;;4970115;28;20043;-72
2023/04/11 04:29:05;;;;;;;26.10;10.32;;;7.90;100.00;;;;;;4963916;28;20055;-72
2023/04/11 04:31:32;;;;;;;23.65;11.07;;;7.90;100.00;;;;;;4964499;28;20403;-72
2023/04/11 04:34:07;;;;;;;30.02;11.50;;;7.90;100.00;;;;;;4965318;28;20062;-72
2023/04/11 04:36:48;;;;;;;25.85;11.27;;;7.90;100.00;;;;;;4960182;28;20071;-72
2023/04/11 04:39:16;;;;;;;33.67;10.63;;;7.90;100.00;;;;;;4967752;28;20484;-72
2023/04/11 04:41:43;;;;;;;27.08;11.75;;;7.90;100.00;;;;;;4968555;28;20043;-72
2023/04/11 04:44:10;;;;;;;26.38;11.50;;;7.90;100.00;;;;;;4968999;28;20057;-72
2023/04/11 04:46:37;;;;;;;29.70;12.27;;;7.90;100.00;;;;;;4989293;28;20507;-72
2023/04/11 04:49:05;;;;;;;27.60;12.10;;;7.90;100.00;;;;;;4974686;28;20071;-72
2023/04/11 04:51:32;;;;;;;29.63;12.23;;;7.80;100.00;;;;;;4967905;28;20046;-71
2023/04/11 04:53:59;;;;;;;29.58;12.15;;;7.80;100.00;;;;;;4965444;28;20055;-71
2023/04/11 04:56:29;;;;;;;22.95;11.02;;;7.80;100.00;;;;;;4968681;28;20054;-71
2023/04/11 04:58:56;;;;;;;30.05;12.38;;;7.80;100.00;;;;;;4982452;28;20120;-73
2023/04/11 05:01:25;;;;;;;26.00;11.38;;;7.80;100.00;;;;;;4969627;28;20050;-70
2023/04/11 05:03:59;;;;;;;28.27;11.50;;;7.80;100.00;;;;;;4967073;28;20050;-72
2023/04/11 05:06:30;;;;;;;29.38;12.30;;;7.80;100.00;;;;;;4966938;28;20125;-70
2023/04/11 05:09:00;;;;;;;27.40;11.88;;;7.80;100.00;;;;;;4968401;28;20054;-71
2023/04/11 05:11:27;;;;;;;24.80;10.73;;;7.80;100.00;;;;;;4972936;28;20058;-74
2023/04/11 05:13:54;;;;;;;27.38;11.20;;;7.80;100.00;;;;;;4968233;28;20812;-72
2023/04/11 05:16:21;;;;;;;31.38;12.85;;;7.80;100.00;;;;;;4988667;28;20116;-73
2023/04/11 05:18:48;;;;;;;30.27;12.23;;;7.80;100.00;;;;;;4967549;28;20093;-73
2023/04/11 05:21:15;;;;;;;34.33;12.82;;;7.80;100.00;;;;;;4983058;28;20419;-74
2023/04/11 05:23:42;;;;;;;28.17;11.93;;;7.80;100.00;;;;;;4968887;28;20042;-74
2023/04/11 05:26:10;;;;;;;30.15;12.90;;;7.80;100.00;;;;;;4954936;28;20047;-74
2023/04/11 05:28:37;;;;;;;30.23;13.27;;;7.80;100.00;;;;;;4968713;28;20404;-73
2023/04/11 05:31:05;;;;;;;31.35;12.80;;;7.90;100.00;;;;;;4970894;28;20054;-73
2023/04/11 05:33:32;;;;;;;33.05;12.88;;;7.90;100.00;;;;;;4967228;28;20069;-73
2023/04/11 05:35:59;;;;;;;34.83;12.27;;;7.90;100.00;;;;;;4954614;28;20042;-73
2023/04/11 05:38:26;;;;;;;32.72;12.82;;;7.90;100.00;;;;;;4969227;28;20757;-75
2023/04/11 05:40:53;;;;;;;32.83;13.18;;;7.90;100.00;;;;;;4965844;28;20056;-74
2023/04/11 05:43:20;;;;;;;30.77;12.70;;;7.90;100.00;;;;;;4950708;28;20794;-73
2023/04/11 05:45:47;;;;;;;30.15;12.32;;;7.90;100.00;;;;;;4970235;28;20061;-73
2023/04/11 05:48:14;;;;;;;29.50;12.15;;;7.90;100.00;;;;;;4964915;28;20157;-73
2023/04/11 05:50:42;;;;;;;31.83;12.10;;;7.90;100.00;;;;;;4973220;28;20057;-73
2023/04/11 05:53:09;;;;;;;29.75;12.48;;;7.90;100.00;;;;;;4967283;28;20081;-73
2023/04/11 05:55:36;;;;;;;31.77;12.48;;;7.90;100.00;;;;;;4968254;28;20547;-73
2023/04/11 05:58:03;;;;;;;35.63;13.05;;;7.90;100.00;;;;;;4966880;28;20653;-73
2023/04/11 06:00:31;;;;;;;29.75;13.38;;;7.90;100.00;;;;;;4971835;28;20050;-73
2023/04/11 06:02:58;;;;;;;30.55;12.00;;;8.00;100.00;;;;;;4966789;28;20088;-74
2023/04/11 06:05:30;;;;;;;27.45;11.43;;;8.00;100.00;;;;;;4971668;28;20089;-73
2023/04/11 06:08:01;;;;;;;25.40;10.82;;;8.00;100.00;;;;;;4950066;28;20051;-73
2023/04/11 06:10:29;;;;;;;23.75;10.30;;;8.00;100.00;;;;;;4949721;28;20054;-73
2023/04/11 06:12:57;;;;;;;24.02;9.93;;;8.10;100.00;;;;;;4970404;28;20047;-73
2023/04/11 06:15:27;;;;;;;25.20;9.15;;;8.10;100.00;;;;;;4972529;28;20069;-73
2023/04/11 06:17:54;;;;;;;23.02;9.55;;;8.10;100.00;;;;;;4967947;28;20444;-73
2023/04/11 06:20:22;;;;;;;21.75;9.38;;;8.10;100.00;;;;;;4955703;28;20097;-74
2023/04/11 06:22:52;;;;;;;17.48;8.52;;;8.10;100.00;;;;;;4970416;28;20549;-73
2023/04/11 06:25:20;;;;;;;25.20;8.52;;;8.10;100.00;;;;;;4971686;28;20076;-74
2023/04/11 06:27:47;;;;;;;18.58;8.18;;;8.10;100.00;;;;;;4954058;28;20050;-74
2023/04/11 06:30:14;;;;;;;21.80;9.32;;;8.20;100.00;;;;;;4955855;28;20053;-73
2023/04/11 06:32:41;;;;;;;22.02;7.95;;;8.20;100.00;;;;;;4966451;28;20046;-73
2023/04/11 06:35:08;;;;;;;21.40;7.60;;;8.30;100.00;;;;;;4968790;28;20038;-74
2023/04/11 06:37:35;;;;;;;10.43;3.92;;;8.40;100.00;;;;;;4965806;28;20047;-73
2023/04/11 06:40:06;;;;;;;9.38;2.80;;;8.30;97.40;;;;;;4952346;28;20078;-73
2023/04/11 06:42:32;;;;;;;10.32;2.72;;;8.30;96.10;;;;;;4949356;28;20057;-73
2023/04/11 06:45:00;;;;;;;11.65;2.88;;;8.30;96.50;;;;;;4952419;28;20065;-73
2023/04/11 06:47:27;;;;;;;7.90;2.58;;;8.30;95.70;;;;;;4968952;28;20082;-73
2023/04/11 06:49:54;;;;;;;6.40;1.90;;;8.40;94.80;;;;;;4967746;28;20050;-73
2023/04/11 06:52:21;;;;;;;8.38;2.30;;;8.40;92.60;;;;;;4969226;28;20423;-72
2023/04/11 06:54:48;;;;;;;5.88;2.45;;;8.50;93.60;;;;;;4967668;28;20043;-72
2023/04/11 06:57:15;;;;;;;6.03;1.60;;;8.50;92.30;;;;;;4966840;28;20046;-72
2023/04/11 06:59:41;;;;;;;8.73;1.50;;;8.50;92.30;;;;;;4970152;28;20042;-72
2023/04/11 07:02:08;;;;;;;6.25;1.90;;;8.50;90.00;;;;;;4948988;28;20061;-72
2023/04/11 07:04:35;;;;;;;5.00;1.92;;;8.40;88.60;;;;;;4967724;28;20129;-72
2023/04/11 07:07:03;;;;;;;4.63;1.70;;;8.40;90.00;;;;;;4966657;28;20455;-73
2023/04/11 07:09:30;;;;;;;3.22;1.25;;;8.40;90.30;;;;;;4979410;28;20072;-73
2023/04/11 07:11:57;;;;;;;7.45;1.50;;;8.40;90.80;;;;;;4970873;28;20057;-73
2023/04/11 07:14:24;;;;;;;5.72;1.48;;;8.50;91.10;;;;;;4964595;28;20054;-73
2023/04/11 07:16:51;;;;;;;7.20;1.30;;;8.60;90.70;;;;;;4966333;28;20100;-73
2023/04/11 07:19:18;;;;;;;9.57;1.35;;;9.00;90.30;;;;;;4967596;28;20042;-73
2023/04/11 07:21:45;;;;;;;4.65;1.65;;;9.80;89.30;;;;;;4968313;28;20046;-73
2023/04/11 07:24:12;;;;;;;5.80;1.50;;;10.40;85.60;;;;;;4965948;28;20046;-73
2023/04/11 07:26:41;;;;;;;4.15;1.27;;;10.80;80.00;;;;;;4963541;28;20054;-72
2023/04/11 07:29:08;;;;;;;2.55;1.23;;;10.80;82.70;;;;;;4965502;28;20105;-72
2023/04/11 07:31:39;;;;;;;5.00;2.25;;;10.90;83.10;;;;;;4964827;28;20061;-72
2023/04/11 07:34:06;;;;;;;7.85;1.30;;;11.40;82.50;;;;;;4966135;28;20061;-73
2023/04/11 07:36:33;;;;;;;4.15;1.10;;;12.00;79.90;;;;;;4967533;28;20126;-73
2023/04/11 07:39:01;;;;;;;4.15;1.25;;;12.20;77.50;;;;;;4965173;28;20050;-73
2023/04/11 07:41:27;;;;;;;4.47;1.27;;;12.30;76.40;;;;;;4966314;28;20449;-73
2023/04/11 07:43:54;;;;;;;5.90;1.40;;;12.20;76.70;;;;;;4965354;28;20047;-72
2023/04/11 07:46:21;;;;;;;5.60;1.42;;;12.40;77.30;;;;;;4972052;28;20853;-74
2023/04/11 07:48:48;;;;;;;3.20;1.10;;;12.50;75.90;;;;;;4965387;28;20594;-74
2023/04/11 07:51:15;;;;;;;7.68;1.60;;;12.70;76.10;;;;;;4972720;28;20132;-73
2023/04/11 07:53:42;;;;;;;7.25;1.73;;;13.10;75.30;;;;;;4964057;28;20118;-74
2023/04/11 07:56:09;;;;;;;2.63;1.15;;;13.00;73.20;;;;;;4976606;28;20109;-73
2023/04/11 07:58:36;;;;;;;7.25;1.70;;;13.00;71.10;;;;;;4961835;28;20832;-73
2023/04/11 08:01:04;;;;;;;3.58;0.98;;;12.90;72.40;;;;;;4970248;28;20113;-73
2023/04/11 08:03:31;;;;;;;4.88;1.30;;;12.70;75.60;;;;;;4965406;28;20507;-74
2023/04/11 08:05:58;;;;;;;6.88;1.40;;;12.70;75.10;;;;;;4966852;28;20602;-73
2023/04/11 08:08:25;;;;;;;7.63;1.30;;;13.00;73.10;;;;;;4964696;28;20050;-73
2023/04/11 08:10:52;;;;;;;6.55;1.02;;;12.70;71.50;;;;;;4975420;28;20050;-74
2023/04/11 08:13:18;;;;;;;4.32;1.10;;;12.40;73.50;;;;;;4972744;28;20047;-74
2023/04/11 08:15:45;;;;;;;6.50;1.02;;;12.10;72.90;;;;;;4970305;28;20077;-74
2023/04/11 08:18:12;;;;;;;6.55;1.25;;;11.90;74.10;;;;;;4968159;28;20043;-73
2023/04/11 08:20:39;;;;;;;10.05;1.92;;;11.90;74.90;;;;;;4957748;28;20834;-74
2023/04/11 08:23:07;;;;;;;6.22;1.23;;;11.80;75.20;;;;;;4974199;28;20042;-74
2023/04/11 08:25:35;;;;;;;4.85;0.98;;;12.10;74.40;;;;;;4972664;28;20540;-74
2023/04/11 08:28:03;;;;;;;4.97;0.93;;;12.00;73.00;;;;;;4969089;28;20489;-74
2023/04/11 08:30:31;;;;;;;4.05;1.27;;;12.00;77.00;;;;;;4972536;28;20452;-74
2023/04/11 08:32:58;;;;;;;9.23;1.38;;;12.20;73.50;;;;;;4956840;28;20043;-74
2023/04/11 08:35:25;;;;;;;6.40;1.13;;;12.60;73.40;;;;;;4953857;28;20062;-74
2023/04/11 09:14:09;;;;;;;5.82;1.20;;;11.60;72.10;;;;;;5102123;27;20410;-77
2023/04/11 09:16:51;;;;;;;5.07;1.33;;;14.00;67.30;;;;;;5099944;28;20047;-76
2023/04/11 09:19:26;;;;;;;5.45;1.05;;;14.80;66.20;;;;;;5104653;28;20054;-74
2023/04/11 09:21:59;;;;;;;4.38;1.10;;;15.30;62.80;;;;;;5099920;28;20155;-75
2023/04/11 09:24:29;;;;;;;1.88;1.00;;;15.10;60.60;;;;;;5102780;28;20376;-75
2023/04/11 09:27:15;;;;;;;4.18;1.20;;;14.30;62.50;;;;;;5104595;28;20071;-75
2023/04/11 09:29:46;;;;;;;3.05;0.98;;;13.70;61.60;;;;;;5099560;28;20051;-78
2023/04/11 09:32:29;;;;;;;4.30;1.95;;;13.00;63.60;;;;;;5099591;28;20109;-78
2023/04/11 09:35:19;;;;;;;2.20;1.20;;;12.50;65.80;;;;;;5105839;28;20140;-78
2023/04/11 09:37:54;;;;;;;3.55;1.27;;;12.00;69.30;;;;;;5103364;27;20055;-76
2023/04/11 09:40:23;;;;;;;5.30;1.02;;;11.60;71.00;;;;;;5105447;27;20048;-75
2023/04/11 09:45:37;;;;;;;9.82;1.40;;;11.10;73.20;;;;;;5079782;28;20056;-87
2023/04/11 09:48:19;;;;;;;6.28;1.40;;;10.90;72.20;;;;;;5086965;28;20435;-80
2023/04/11 09:50:53;;;;;;;7.60;1.10;;;10.90;74.60;;;;;;5083044;28;20058;-84
2023/04/11 09:53:20;;;;;;;7.47;1.52;;;10.90;72.70;;;;;;5075898;28;20519;-83
2023/04/11 09:55:46;;;;;;;6.38;1.52;;;11.10;74.10;;;;;;5068874;28;20513;-85
2023/04/11 09:58:14;;;;;;;1.85;1.00;;;11.30;72.90;;;;;;5057019;28;20036;-86
2023/04/11 10:00:43;;;;;;;7.55;1.45;;;11.30;70.10;;;;;;5058686;28;20063;-86
2023/04/11 10:03:10;;;;;;;10.48;1.20;;;11.20;71.40;;;;;;5068258;28;20056;-87
2023/04/11 10:05:38;;;;;;;5.57;1.27;;;11.20;71.30;;;;;;5079123;28;20049;-86
2023/04/11 10:08:12;;;;;;;3.10;0.85;;;11.10;71.00;;;;;;5075388;28;20075;-86
2023/04/11 10:10:42;;;;;;;9.02;1.05;;;11.00;70.60;;;;;;5062118;28;20153;-76
2023/04/11 10:13:36;;;;;;;7.85;1.60;;;10.90;72.30;;;;;;5076147;28;20105;-76
2023/04/11 10:16:08;;;;;;;2.83;1.10;;;11.20;73.70;;;;;;5038154;28;20052;-76
2023/04/11 10:18:38;;;;;;;2.85;1.20;;;11.70;71.60;;;;;;5048055;28;20051;-77
2023/04/11 10:21:29;;;;;;;6.05;1.15;;;12.40;72.60;;;;;;5086460;28;20044;-87
2023/04/11 10:24:12;;;;;;;2.08;1.30;;;14.80;64.80;;;;;;5065805;28;20059;-86
2023/04/11 10:26:54;;;;;;;4.43;1.20;;;14.80;62.90;;;;;;5064852;28;20500;-85
2023/04/11 10:29:28;;;;;;;6.15;1.95;;;14.20;60.80;;;;;;5079796;28;20048;-84
2023/04/11 10:32:13;;;;;;;3.78;1.27;;;13.50;67.20;;;;;;5069991;28;20049;-87
2023/04/11 10:34:50;;;;;;;10.27;1.67;;;12.50;74.20;;;;;;5074964;28;20051;-86
2023/04/11 10:37:18;;;;;;;5.53;1.45;;;11.50;80.60;;;;;;5080959;28;20511;-87
2023/04/11 10:39:54;;;;;;;3.22;1.50;;;10.90;84.60;;;;;;5064166;28;20040;-87
2023/04/11 10:42:27;;;;;;;5.35;1.40;;;10.30;86.90;;;;;;5079990;28;20059;-89
2023/04/11 10:45:12;;;;;;;5.30;1.33;;;10.10;89.90;;;;;;5044815;28;20055;-88
2023/04/11 10:47:39;;;;;;;2.42;1.40;;;10.30;91.90;;;;;;5077997;28;20062;-88
2023/04/11 10:50:25;;;;;;;4.35;1.45;;;10.60;88.50;;;;;;5046986;28;20041;-88
2023/04/11 10:52:57;;;;;;;5.50;1.50;;;10.50;90.70;;;;;;5068404;28;20056;-88
2023/04/11 10:55:45;;;;;;;8.00;2.05;;;10.70;93.60;;;;;;5070970;28;20040;-78
2023/04/11 10:58:14;;;;;;;1.55;1.25;;;12.60;92.00;;;;;;5056505;28;20080;-79
2023/04/11 11:00:53;;;;;;;1.55;1.25;;;13.20;83.50;;;;;;5047734;28;20397;-79
2023/04/11 11:03:29;;;;;;;3.17;1.50;;;14.40;77.80;;;;;;5074841;28;20187;-80
2023/04/11 11:05:57;;;;;;;1.85;0.93;;;15.20;72.40;;;;;;5046571;28;20044;-89
2023/04/11 11:08:29;;;;;;;1.65;1.10;;;16.40;66.30;;;;;;5045787;28;20092;-79
2023/04/11 11:11:02;;;;;;;1.30;1.10;;;15.20;67.70;;;;;;5063665;28;20053;-79
2023/04/11 11:13:44;;;;;;;2.17;1.10;;;14.20;69.20;;;;;;5064609;28;20056;-79
2023/04/11 11:16:19;;;;;;;1.48;1.20;;;13.30;69.60;;;;;;5043836;28;20052;-77
2023/04/11 11:18:55;;;;;;;1.90;1.65;;;12.40;74.50;;;;;;5038391;28;20045;-78
2023/04/11 11:21:26;;;;;;;2.45;1.20;;;11.90;76.30;;;;;;5070147;28;20048;-77
2023/04/11 11:23:55;;;;;;;3.78;1.75;;;11.80;77.60;;;;;;5046025;28;20049;-78
2023/04/11 11:26:57;;;;;;;3.00;1.40;;;11.80;78.20;;;;;;5049562;28;20052;-78
2023/04/11 11:29:35;;;;;;;1.55;1.45;;;11.70;76.80;;;;;;5048630;28;20048;-90
2023/04/11 11:32:02;;;;;;;1.65;1.50;;;12.30;77.70;;;;;;5080200;28;20056;-90
2023/04/11 11:34:31;;;;;;;1.92;1.38;;;13.70;76.00;;;;;;5044302;28;20059;-89
2023/04/11 11:37:05;;;;;;;1.85;1.40;;;14.10;67.80;;;;;;5049128;28;20515;-89
2023/04/11 11:39:34;;;;;;;4.65;1.10;;;13.60;70.40;;;;;;5061173;28;20048;-89
2023/04/11 11:42:02;;;;;;;1.13;0.80;;;13.20;71.20;;;;;;5050826;28;20055;-89
2023/04/11 11:44:30;;;;;;;0.80;0.60;;;14.50;73.40;;;;;;5059362;28;20051;-87
2023/04/11 11:47:04;;;;;;;1.30;0.88;;;15.90;63.40;;;;;;5064831;28;20078;-88
2023/04/11 11:49:51;;;;;;;7.20;1.00;;;14.90;64.30;;;;;;5058751;28;20048;-87
2023/04/11 11:52:35;;;;;;;2.05;0.65;;;15.50;66.80;;;;;;5071445;28;20694;-87
2023/04/11 11:55:04;;;;;;;1.13;0.35;;;16.10;62.10;;;;;;5062762;28;20074;-86
2023/04/11 11:57:51;;;;;;;0.55;0.35;;;17.00;58.60;;;;;;5044560;28;20053;-86
2023/04/11 12:00:26;;;;;;;0.65;0.40;;;16.00;60.10;;;;;;5052594;28;20133;-85
2023/04/11 12:02:54;;;;;;;4.50;0.80;;;15.60;60.00;;;;;;5039795;28;20040;-83
2023/04/11 12:05:28;;;;;;;0.98;0.50;;;15.10;61.50;;;;;;5057106;28;20343;-83
2023/04/11 12:07:58;;;;;;;5.25;0.45;;;14.50;61.40;;;;;;5056819;28;20044;-82
2023/04/11 12:10:35;;;;;;;0.85;0.63;;;13.70;63.70;;;;;;5048973;28;20044;-86
2023/04/11 12:13:18;;;;;;;1.15;0.70;;;13.30;65.10;;;;;;5056388;28;20040;-88
2023/04/11 12:15:56;;;;;;;1.33;0.75;;;13.20;66.40;;;;;;5053625;28;20044;-90
2023/04/11 12:18:26;;;;;;;1.80;0.60;;;12.90;65.90;;;;;;5044720;28;20040;-90
2023/04/11 12:20:53;;;;;;;4.03;0.80;;;12.70;67.70;;;;;;5056062;28;20086;-89
2023/04/11 12:23:21;;;;;;;5.10;0.88;;;12.90;68.50;;;;;;5052820;28;20052;-89
2023/04/11 12:25:48;;;;;;;3.63;0.77;;;12.90;69.80;;;;;;5058031;28;20097;-90
2023/04/11 12:28:15;;;;;;;1.15;0.88;;;13.10;68.60;;;;;;5050910;28;20751;-89
2023/04/11 12:30:42;;;;;;;0.95;0.80;;;13.20;67.10;;;;;;5076600;28;20060;-78
2023/04/11 12:33:09;;;;;;;3.85;0.65;;;13.60;67.50;;;;;;5073473;28;20770;-79
2023/04/11 12:35:36;;;;;;;1.60;0.90;;;14.30;65.80;;;;;;5062939;28;20089;-78
2023/04/11 12:38:03;;;;;;;1.33;0.70;;;15.70;64.20;;;;;;5048589;28;20044;-78
2023/04/11 12:40:30;;;;;;;2.53;1.30;;;17.20;61.80;;;;;;5042147;28;20052;-78
2023/04/11 12:42:57;;;;;;;1.20;0.80;;;18.20;56.70;;;;;;5041468;28;20064;-79
2023/04/11 12:45:24;;;;;;;1.55;0.70;;;18.10;52.80;;;;;;5036108;28;20086;-78
2023/04/11 12:47:51;;;;;;;1.98;0.80;;;18.40;57.50;;;;;;5045208;28;20044;-78
2023/04/11 12:50:19;;;;;;;1.58;0.70;;;18.60;56.10;;;;;;5033845;28;20044;-79
2023/04/11 12:52:48;;;;;;;2.22;1.13;;;17.90;55.30;;;;;;5033191;28;20052;-78
2023/04/11 12:55:15;;;;;;;5.45;0.98;;;17.40;55.70;;;;;;5060420;28;20060;-79
2023/04/11 12:57:42;;;;;;;3.05;1.15;;;17.10;56.10;;;;;;5034629;28;20885;-79
2023/04/11 13:00:11;;;;;;;2.38;1.10;;;16.80;56.70;;;;;;5054846;28;20090;-79
2023/04/11 13:02:38;;;;;;;1.95;1.02;;;16.60;58.00;;;;;;5065513;28;20095;-78
2023/04/11 13:05:12;;;;;;;2.42;1.50;;;16.00;57.60;;;;;;5041437;28;20690;-79
2023/04/11 13:07:40;;;;;;;1.30;1.10;;;15.50;57.90;;;;;;5039184;28;20107;-90
2023/04/11 13:10:08;;;;;;;3.80;1.38;;;15.00;58.20;;;;;;5049980;28;20066;-91
2023/04/11 13:12:43;;;;;;;2.95;1.70;;;14.20;61.00;;;;;;5080294;28;20044;-90
2023/04/11 13:15:12;;;;;;;5.90;1.80;;;13.80;61.90;;;;;;5039680;28;20719;-89
2023/04/11 13:17:39;;;;;;;3.40;1.63;;;13.20;65.20;;;;;;5051119;28;20060;-89
2023/04/11 13:20:08;;;;;;;2.03;1.60;;;12.80;67.00;;;;;;5056638;28;20445;-88
2023/04/11 13:22:36;;;;;;;4.07;2.00;;;12.20;68.70;;;;;;5052902;28;20102;-89
2023/04/11 13:25:04;;;;;;;7.07;2.25;;;11.80;70.90;;;;;;5051211;28;20078;-89
2023/04/11 13:27:31;;;;;;;5.40;1.10;;;11.30;71.00;;;;;;5055777;28;20056;-84
2023/04/11 13:29:58;;;;;;;2.67;1.13;;;10.30;75.50;;;;;;5053036;28;20500;-86
2023/04/11 13:32:26;;;;;;;2.17;0.82;;;9.80;82.90;;;;;;5054353;28;20068;-87